Solo, Missouri
Current Conditions -  °F | °C
As of 10:29 AM on Wednesday 26 Nov 2014 (Local Time) from KUNO Reporting Station
Moderate Snow Moderate Snow  
Wind Chill: 26°   Ceiling: 1000
Heat Index: 31°   Visibility: 0.5mi
Dew Point: 29°   Wind: 5mph
Humidity: 92%   Direction: 140°SE
Pressure: 29.98"   Gusts: NA
Location:  37.24°N, 91.95°W
Report Text: KUNO 261629Z AUTO 14004KT 1/2SM SN FZFG FEW006 OVC010 M01/M02 A2998 RMK AO2 PRESFR P0005 T10061017
Loading
Personal Weather Stations






























Interactive Weather Map New forecast layout! Learn more

10-Day Weather Forecast

Advertisements
Track Severe Weather on mobile